sensor_id;sensor_type;location;lat;lon;timestamp;P1;durP1;ratioP1;P2;durP2;ratioP2
5752;SDS011;2901;42.140;24.760;2023-11-21T00:01:26;1.52;;;1.42;;
5752;SDS011;2901;42.140;24.760;2023-11-21T00:03:51;1.17;;;1.08;;
5752;SDS011;2901;42.140;24.760;2023-11-21T00:06:19;1.40;;;1.15;;
5752;SDS011;2901;42.140;24.760;2023-11-21T00:08:45;3.05;;;1.20;;
5752;SDS011;2901;42.140;24.760;2023-11-21T00:11:11;1.88;;;0.90;;
5752;SDS011;2901;42.140;24.760;2023-11-21T00:13:36;1.13;;;1.02;;
5752;SDS011;2901;42.140;24.760;2023-11-21T00:16:02;0.93;;;0.93;;
5752;SDS011;2901;42.140;24.760;2023-11-21T00:18:29;1.75;;;1.38;;
5752;SDS011;2901;42.140;24.760;2023-11-21T00:20:54;1.20;;;1.10;;
5752;SDS011;2901;42.140;24.760;2023-11-21T00:23:20;1.55;;;1.45;;
5752;SDS011;2901;42.140;24.760;2023-11-21T00:25:45;4.85;;;1.52;;
5752;SDS011;2901;42.140;24.760;2023-11-21T00:28:11;5.90;;;2.28;;
5752;SDS011;2901;42.140;24.760;2023-11-21T00:30:36;1.92;;;1.83;;
5752;SDS011;2901;42.140;24.760;2023-11-21T00:33:01;2.30;;;1.90;;
5752;SDS011;2901;42.140;24.760;2023-11-21T00:35:27;3.15;;;1.65;;
5752;SDS011;2901;42.140;24.760;2023-11-21T00:37:52;2.50;;;2.30;;
5752;SDS011;2901;42.140;24.760;2023-11-21T00:40:18;5.15;;;2.97;;
5752;SDS011;2901;42.140;24.760;2023-11-21T00:42:46;3.00;;;2.78;;
5752;SDS011;2901;42.140;24.760;2023-11-21T00:45:12;2.28;;;2.17;;
5752;SDS011;2901;42.140;24.760;2023-11-21T00:47:37;5.95;;;2.95;;
5752;SDS011;2901;42.140;24.760;2023-11-21T00:50:03;3.67;;;2.47;;
5752;SDS011;2901;42.140;24.760;2023-11-21T00:52:31;3.65;;;3.10;;
5752;SDS011;2901;42.140;24.760;2023-11-21T00:54:56;5.40;;;3.33;;
5752;SDS011;2901;42.140;24.760;2023-11-21T00:57:25;9.38;;;3.22;;
5752;SDS011;2901;42.140;24.760;2023-11-21T00:59:51;38.37;;;9.23;;
5752;SDS011;2901;42.140;24.760;2023-11-21T01:02:16;7.05;;;4.13;;
5752;SDS011;2901;42.140;24.760;2023-11-21T01:04:42;3.17;;;2.90;;
5752;SDS011;2901;42.140;24.760;2023-11-21T01:07:08;4.20;;;3.42;;
5752;SDS011;2901;42.140;24.760;2023-11-21T01:09:33;3.70;;;3.40;;
5752;SDS011;2901;42.140;24.760;2023-11-21T01:11:58;5.80;;;3.30;;
5752;SDS011;2901;42.140;24.760;2023-11-21T01:14:24;4.88;;;3.00;;
5752;SDS011;2901;42.140;24.760;2023-11-21T01:16:51;5.00;;;3.10;;
5752;SDS011;2901;42.140;24.760;2023-11-21T01:19:17;3.37;;;3.00;;
5752;SDS011;2901;42.140;24.760;2023-11-21T01:21:42;3.20;;;2.50;;
5752;SDS011;2901;42.140;24.760;2023-11-21T01:24:08;5.50;;;2.85;;
5752;SDS011;2901;42.140;24.760;2023-11-21T01:26:33;5.03;;;2.88;;
5752;SDS011;2901;42.140;24.760;2023-11-21T01:28:59;3.37;;;3.07;;
5752;SDS011;2901;42.140;24.760;2023-11-21T01:31:24;3.08;;;2.88;;
5752;SDS011;2901;42.140;24.760;2023-11-21T01:33:54;38.60;;;23.37;;
5752;SDS011;2901;42.140;24.760;2023-11-21T01:36:20;11.77;;;8.83;;
5752;SDS011;2901;42.140;24.760;2023-11-21T01:38:46;3.80;;;3.50;;
5752;SDS011;2901;42.140;24.760;2023-11-21T01:41:13;3.35;;;2.83;;
5752;SDS011;2901;42.140;24.760;2023-11-21T01:43:39;2.43;;;2.17;;
5752;SDS011;2901;42.140;24.760;2023-11-21T01:46:05;5.03;;;3.27;;
5752;SDS011;2901;42.140;24.760;2023-11-21T01:48:31;5.70;;;3.10;;
5752;SDS011;2901;42.140;24.760;2023-11-21T01:50:57;5.03;;;3.30;;
5752;SDS011;2901;42.140;24.760;2023-11-21T01:53:24;4.03;;;3.60;;
5752;SDS011;2901;42.140;24.760;2023-11-21T01:55:51;4.40;;;3.37;;
5752;SDS011;2901;42.140;24.760;2023-11-21T01:58:17;3.77;;;3.47;;
5752;SDS011;2901;42.140;24.760;2023-11-21T02:00:42;4.70;;;4.13;;
5752;SDS011;2901;42.140;24.760;2023-11-21T02:03:08;5.63;;;4.13;;
5752;SDS011;2901;42.140;24.760;2023-11-21T02:05:35;5.37;;;4.10;;
5752;SDS011;2901;42.140;24.760;2023-11-21T02:08:01;5.57;;;4.00;;
5752;SDS011;2901;42.140;24.760;2023-11-21T02:10:27;4.47;;;4.03;;
5752;SDS011;2901;42.140;24.760;2023-11-21T02:12:54;4.07;;;3.87;;
5752;SDS011;2901;42.140;24.760;2023-11-21T02:15:21;4.30;;;3.90;;
5752;SDS011;2901;42.140;24.760;2023-11-21T02:17:49;6.63;;;5.37;;
5752;SDS011;2901;42.140;24.760;2023-11-21T02:20:16;5.27;;;4.50;;
5752;SDS011;2901;42.140;24.760;2023-11-21T02:22:43;6.00;;;5.17;;
5752;SDS011;2901;42.140;24.760;2023-11-21T02:25:10;7.03;;;5.40;;
5752;SDS011;2901;42.140;24.760;2023-11-21T02:27:36;4.80;;;4.40;;
5752;SDS011;2901;42.140;24.760;2023-11-21T02:30:02;6.50;;;4.13;;
5752;SDS011;2901;42.140;24.760;2023-11-21T02:32:29;6.03;;;3.73;;
5752;SDS011;2901;42.140;24.760;2023-11-21T02:34:56;7.17;;;4.40;;
5752;SDS011;2901;42.140;24.760;2023-11-21T02:37:25;5.23;;;4.80;;
5752;SDS011;2901;42.140;24.760;2023-11-21T02:39:51;5.87;;;4.43;;
5752;SDS011;2901;42.140;24.760;2023-11-21T02:42:17;5.93;;;4.57;;
5752;SDS011;2901;42.140;24.760;2023-11-21T02:44:43;5.10;;;4.70;;
5752;SDS011;2901;42.140;24.760;2023-11-21T02:47:08;6.77;;;5.60;;
5752;SDS011;2901;42.140;24.760;2023-11-21T02:49:34;13.53;;;9.10;;
5752;SDS011;2901;42.140;24.760;2023-11-21T02:52:00;5.47;;;4.97;;
5752;SDS011;2901;42.140;24.760;2023-11-21T02:54:26;6.27;;;4.57;;
5752;SDS011;2901;42.140;24.760;2023-11-21T02:56:52;6.20;;;4.97;;
5752;SDS011;2901;42.140;24.760;2023-11-21T02:59:17;7.07;;;5.07;;
5752;SDS011;2901;42.140;24.760;2023-11-21T03:01:44;5.40;;;4.90;;
5752;SDS011;2901;42.140;24.760;2023-11-21T03:04:11;8.80;;;4.87;;
5752;SDS011;2901;42.140;24.760;2023-11-21T03:06:44;6.70;;;4.80;;
5752;SDS011;2901;42.140;24.760;2023-11-21T03:09:10;6.10;;;5.03;;
5752;SDS011;2901;42.140;24.760;2023-11-21T03:11:37;5.70;;;4.77;;
5752;SDS011;2901;42.140;24.760;2023-11-21T03:14:03;5.80;;;4.57;;
5752;SDS011;2901;42.140;24.760;2023-11-21T03:16:28;5.20;;;4.70;;
5752;SDS011;2901;42.140;24.760;2023-11-21T03:18:54;4.90;;;4.40;;
5752;SDS011;2901;42.140;24.760;2023-11-21T03:21:19;7.23;;;5.43;;
5752;SDS011;2901;42.140;24.760;2023-11-21T03:23:45;5.30;;;4.80;;
5752;SDS011;2901;42.140;24.760;2023-11-21T03:26:13;9.20;;;5.40;;
5752;SDS011;2901;42.140;24.760;2023-11-21T03:28:38;5.40;;;4.90;;
5752;SDS011;2901;42.140;24.760;2023-11-21T03:31:04;5.47;;;5.07;;
5752;SDS011;2901;42.140;24.760;2023-11-21T03:33:31;5.43;;;4.93;;
5752;SDS011;2901;42.140;24.760;2023-11-21T03:35:57;4.67;;;4.27;;
5752;SDS011;2901;42.140;24.760;2023-11-21T03:38:22;5.23;;;4.40;;
5752;SDS011;2901;42.140;24.760;2023-11-21T03:40:48;9.17;;;4.70;;
5752;SDS011;2901;42.140;24.760;2023-11-21T03:43:14;4.63;;;4.20;;
5752;SDS011;2901;42.140;24.760;2023-11-21T03:45:39;5.13;;;4.60;;
5752;SDS011;2901;42.140;24.760;2023-11-21T03:48:06;4.53;;;4.23;;
5752;SDS011;2901;42.140;24.760;2023-11-21T03:50:31;7.80;;;4.73;;
5752;SDS011;2901;42.140;24.760;2023-11-21T03:52:57;6.83;;;4.37;;
5752;SDS011;2901;42.140;24.760;2023-11-21T03:55:22;5.30;;;4.27;;
5752;SDS011;2901;42.140;24.760;2023-11-21T03:57:49;5.83;;;4.23;;
5752;SDS011;2901;42.140;24.760;2023-11-21T04:00:16;5.53;;;5.03;;
5752;SDS011;2901;42.140;24.760;2023-11-21T04:02:42;5.87;;;4.37;;
5752;SDS011;2901;42.140;24.760;2023-11-21T04:05:07;4.77;;;4.30;;
5752;SDS011;2901;42.140;24.760;2023-11-21T04:07:34;4.10;;;3.90;;
5752;SDS011;2901;42.140;24.760;2023-11-21T04:09:59;5.23;;;4.70;;
5752;SDS011;2901;42.140;24.760;2023-11-21T04:12:25;9.47;;;4.97;;
5752;SDS011;2901;42.140;24.760;2023-11-21T04:14:50;5.30;;;5.00;;
5752;SDS011;2901;42.140;24.760;2023-11-21T04:17:18;6.13;;;5.00;;
5752;SDS011;2901;42.140;24.760;2023-11-21T04:19:44;23.90;;;6.23;;
5752;SDS011;2901;42.140;24.760;2023-11-21T04:22:09;12.20;;;5.60;;
5752;SDS011;2901;42.140;24.760;2023-11-21T04:24:34;5.97;;;5.43;;
5752;SDS011;2901;42.140;24.760;2023-11-21T04:27:00;5.83;;;5.20;;
5752;SDS011;2901;42.140;24.760;2023-11-21T04:29:25;9.40;;;7.47;;
5752;SDS011;2901;42.140;24.760;2023-11-21T04:31:51;8.17;;;5.87;;
5752;SDS011;2901;42.140;24.760;2023-11-21T04:34:16;9.50;;;5.70;;
5752;SDS011;2901;42.140;24.760;2023-11-21T04:36:42;15.50;;;5.73;;
5752;SDS011;2901;42.140;24.760;2023-11-21T04:39:08;6.23;;;5.73;;
5752;SDS011;2901;42.140;24.760;2023-11-21T04:41:33;8.80;;;6.20;;
5752;SDS011;2901;42.140;24.760;2023-11-21T04:43:59;12.40;;;6.03;;
5752;SDS011;2901;42.140;24.760;2023-11-21T04:46:27;13.77;;;6.20;;
5752;SDS011;2901;42.140;24.760;2023-11-21T04:48:52;12.07;;;6.37;;
5752;SDS011;2901;42.140;24.760;2023-11-21T04:51:18;7.50;;;6.43;;
5752;SDS011;2901;42.140;24.760;2023-11-21T04:53:43;10.33;;;7.17;;
5752;SDS011;2901;42.140;24.760;2023-11-21T04:56:09;7.90;;;6.63;;
5752;SDS011;2901;42.140;24.760;2023-11-21T04:58:34;14.20;;;7.50;;
5752;SDS011;2901;42.140;24.760;2023-11-21T05:01:00;9.37;;;8.20;;
5752;SDS011;2901;42.140;24.760;2023-11-21T05:03:25;20.60;;;10.53;;
5752;SDS011;2901;42.140;24.760;2023-11-21T05:05:51;8.97;;;8.13;;
5752;SDS011;2901;42.140;24.760;2023-11-21T05:08:16;17.37;;;8.63;;
5752;SDS011;2901;42.140;24.760;2023-11-21T05:10:42;16.20;;;8.83;;
5752;SDS011;2901;42.140;24.760;2023-11-21T05:13:07;21.93;;;9.23;;
5752;SDS011;2901;42.140;24.760;2023-11-21T05:15:35;13.70;;;8.10;;
5752;SDS011;2901;42.140;24.760;2023-11-21T05:18:01;16.07;;;10.20;;
5752;SDS011;2901;42.140;24.760;2023-11-21T05:20:27;11.07;;;8.07;;
5752;SDS011;2901;42.140;24.760;2023-11-21T05:22:53;16.90;;;8.10;;
5752;SDS011;2901;42.140;24.760;2023-11-21T05:25:18;23.50;;;9.93;;
5752;SDS011;2901;42.140;24.760;2023-11-21T05:27:44;18.63;;;9.70;;
5752;SDS011;2901;42.140;24.760;2023-11-21T05:30:13;17.03;;;10.10;;
5752;SDS011;2901;42.140;24.760;2023-11-21T05:32:39;15.27;;;9.47;;
5752;SDS011;2901;42.140;24.760;2023-11-21T05:35:07;20.47;;;9.37;;
5752;SDS011;2901;42.140;24.760;2023-11-21T05:37:37;10.37;;;8.63;;
5752;SDS011;2901;42.140;24.760;2023-11-21T05:40:04;18.97;;;10.27;;
5752;SDS011;2901;42.140;24.760;2023-11-21T05:42:34;13.57;;;9.13;;
5752;SDS011;2901;42.140;24.760;2023-11-21T05:45:00;15.27;;;8.53;;
5752;SDS011;2901;42.140;24.760;2023-11-21T05:47:39;13.73;;;9.10;;
5752;SDS011;2901;42.140;24.760;2023-11-21T05:50:11;15.53;;;9.33;;
5752;SDS011;2901;42.140;24.760;2023-11-21T05:52:42;29.83;;;10.97;;
5752;SDS011;2901;42.140;24.760;2023-11-21T05:55:08;20.23;;;10.53;;
5752;SDS011;2901;42.140;24.760;2023-11-21T05:57:34;25.57;;;12.00;;
5752;SDS011;2901;42.140;24.760;2023-11-21T06:00:04;32.83;;;11.90;;
5752;SDS011;2901;42.140;24.760;2023-11-21T06:02:40;23.97;;;12.57;;
5752;SDS011;2901;42.140;24.760;2023-11-21T06:05:07;30.60;;;12.93;;
5752;SDS011;2901;42.140;24.760;2023-11-21T06:07:33;25.17;;;12.87;;
5752;SDS011;2901;42.140;24.760;2023-11-21T06:09:58;27.07;;;11.10;;
5752;SDS011;2901;42.140;24.760;2023-11-21T06:12:24;22.83;;;10.23;;
5752;SDS011;2901;42.140;24.760;2023-11-21T06:14:50;21.30;;;11.27;;
5752;SDS011;2901;42.140;24.760;2023-11-21T06:17:16;19.47;;;10.60;;
5752;SDS011;2901;42.140;24.760;2023-11-21T06:19:42;22.08;;;9.98;;
5752;SDS011;2901;42.140;24.760;2023-11-21T06:22:10;20.77;;;10.33;;
5752;SDS011;2901;42.140;24.760;2023-11-21T06:24:36;15.63;;;10.87;;
5752;SDS011;2901;42.140;24.760;2023-11-21T06:27:03;21.20;;;11.23;;
5752;SDS011;2901;42.140;24.760;2023-11-21T06:29:29;23.23;;;10.63;;
5752;SDS011;2901;42.140;24.760;2023-11-21T06:31:55;19.75;;;10.90;;
5752;SDS011;2901;42.140;24.760;2023-11-21T06:34:20;18.33;;;11.05;;
5752;SDS011;2901;42.140;24.760;2023-11-21T06:36:46;28.57;;;11.97;;
5752;SDS011;2901;42.140;24.760;2023-11-21T06:39:12;27.17;;;11.30;;
5752;SDS011;2901;42.140;24.760;2023-11-21T06:41:40;16.35;;;10.88;;
5752;SDS011;2901;42.140;24.760;2023-11-21T06:44:05;13.77;;;11.25;;
5752;SDS011;2901;42.140;24.760;2023-11-21T06:46:30;23.33;;;11.68;;
5752;SDS011;2901;42.140;24.760;2023-11-21T06:48:56;21.75;;;10.82;;
5752;SDS011;2901;42.140;24.760;2023-11-21T06:51:21;17.60;;;11.97;;
5752;SDS011;2901;42.140;24.760;2023-11-21T06:53:46;24.08;;;12.27;;
5752;SDS011;2901;42.140;24.760;2023-11-21T06:56:18;30.80;;;12.70;;
5752;SDS011;2901;42.140;24.760;2023-11-21T06:58:44;23.58;;;12.20;;
5752;SDS011;2901;42.140;24.760;2023-11-21T07:01:11;22.57;;;11.27;;
5752;SDS011;2901;42.140;24.760;2023-11-21T07:03:36;25.17;;;11.73;;
5752;SDS011;2901;42.140;24.760;2023-11-21T07:06:02;30.73;;;11.97;;
5752;SDS011;2901;42.140;24.760;2023-11-21T07:08:28;13.50;;;10.23;;
5752;SDS011;2901;42.140;24.760;2023-11-21T07:10:54;23.52;;;10.38;;
5752;SDS011;2901;42.140;24.760;2023-11-21T07:13:19;22.67;;;11.07;;
5752;SDS011;2901;42.140;24.760;2023-11-21T07:15:44;21.77;;;10.80;;
5752;SDS011;2901;42.140;24.760;2023-11-21T07:18:10;23.13;;;10.68;;
5752;SDS011;2901;42.140;24.760;2023-11-21T07:20:36;18.25;;;9.45;;
5752;SDS011;2901;42.140;24.760;2023-11-21T07:23:03;22.15;;;13.10;;
5752;SDS011;2901;42.140;24.760;2023-11-21T07:25:29;17.42;;;10.75;;
5752;SDS011;2901;42.140;24.760;2023-11-21T07:27:54;26.27;;;10.85;;
5752;SDS011;2901;42.140;24.760;2023-11-21T07:30:20;14.75;;;9.68;;
5752;SDS011;2901;42.140;24.760;2023-11-21T07:32:47;12.02;;;9.70;;
5752;SDS011;2901;42.140;24.760;2023-11-21T07:35:13;16.38;;;10.85;;
5752;SDS011;2901;42.140;24.760;2023-11-21T07:37:38;13.65;;;8.75;;
5752;SDS011;2901;42.140;24.760;2023-11-21T07:40:04;8.85;;;7.95;;
5752;SDS011;2901;42.140;24.760;2023-11-21T07:42:30;13.02;;;8.57;;
5752;SDS011;2901;42.140;24.760;2023-11-21T07:44:56;19.48;;;8.77;;
5752;SDS011;2901;42.140;24.760;2023-11-21T07:47:21;8.82;;;7.97;;
5752;SDS011;2901;42.140;24.760;2023-11-21T07:49:47;12.10;;;6.03;;
5752;SDS011;2901;42.140;24.760;2023-11-21T07:52:13;11.50;;;6.47;;
5752;SDS011;2901;42.140;24.760;2023-11-21T07:54:39;7.50;;;6.15;;
5752;SDS011;2901;42.140;24.760;2023-11-21T07:57:05;12.40;;;5.90;;
5752;SDS011;2901;42.140;24.760;2023-11-21T07:59:30;13.05;;;6.55;;
5752;SDS011;2901;42.140;24.760;2023-11-21T08:01:56;13.02;;;7.75;;
5752;SDS011;2901;42.140;24.760;2023-11-21T08:04:21;16.08;;;8.52;;
5752;SDS011;2901;42.140;24.760;2023-11-21T08:06:47;11.43;;;6.60;;
5752;SDS011;2901;42.140;24.760;2023-11-21T08:09:12;7.50;;;6.43;;
5752;SDS011;2901;42.140;24.760;2023-11-21T08:11:38;6.97;;;6.13;;
5752;SDS011;2901;42.140;24.760;2023-11-21T08:14:04;5.97;;;5.53;;
5752;SDS011;2901;42.140;24.760;2023-11-21T08:16:30;7.22;;;6.63;;
5752;SDS011;2901;42.140;24.760;2023-11-21T08:18:55;6.18;;;5.03;;
5752;SDS011;2901;42.140;24.760;2023-11-21T08:21:21;5.47;;;4.97;;
5752;SDS011;2901;42.140;24.760;2023-11-21T08:23:49;4.43;;;3.97;;
5752;SDS011;2901;42.140;24.760;2023-11-21T08:26:18;4.72;;;4.32;;
5752;SDS011;2901;42.140;24.760;2023-11-21T08:28:44;7.80;;;4.28;;
5752;SDS011;2901;42.140;24.760;2023-11-21T08:31:09;8.38;;;5.78;;
5752;SDS011;2901;42.140;24.760;2023-11-21T08:33:35;7.40;;;4.80;;
5752;SDS011;2901;42.140;24.760;2023-11-21T08:36:00;6.93;;;4.47;;
5752;SDS011;2901;42.140;24.760;2023-11-21T08:38:26;8.65;;;6.75;;
5752;SDS011;2901;42.140;24.760;2023-11-21T08:40:53;8.57;;;6.65;;
5752;SDS011;2901;42.140;24.760;2023-11-21T08:43:19;6.13;;;5.53;;
5752;SDS011;2901;42.140;24.760;2023-11-21T08:45:45;10.40;;;6.22;;
5752;SDS011;2901;42.140;24.760;2023-11-21T08:48:10;6.88;;;5.85;;
5752;SDS011;2901;42.140;24.760;2023-11-21T08:50:36;5.32;;;4.70;;
5752;SDS011;2901;42.140;24.760;2023-11-21T08:53:02;6.43;;;5.63;;
5752;SDS011;2901;42.140;24.760;2023-11-21T08:55:27;5.32;;;4.47;;
5752;SDS011;2901;42.140;24.760;2023-11-21T08:57:53;4.70;;;4.25;;
5752;SDS011;2901;42.140;24.760;2023-11-21T09:00:19;10.50;;;5.10;;
5752;SDS011;2901;42.140;24.760;2023-11-21T09:02:44;10.35;;;5.00;;
5752;SDS011;2901;42.140;24.760;2023-11-21T09:05:10;6.07;;;5.50;;
5752;SDS011;2901;42.140;24.760;2023-11-21T09:07:37;19.25;;;6.07;;
5752;SDS011;2901;42.140;24.760;2023-11-21T09:10:04;10.38;;;6.32;;
5752;SDS011;2901;42.140;24.760;2023-11-21T09:12:32;9.80;;;6.15;;
5752;SDS011;2901;42.140;24.760;2023-11-21T09:15:00;7.35;;;5.80;;
5752;SDS011;2901;42.140;24.760;2023-11-21T09:17:27;5.85;;;4.75;;
5752;SDS011;2901;42.140;24.760;2023-11-21T09:19:53;6.75;;;4.93;;
5752;SDS011;2901;42.140;24.760;2023-11-21T09:22:18;8.00;;;5.15;;
5752;SDS011;2901;42.140;24.760;2023-11-21T09:24:43;10.65;;;6.38;;
5752;SDS011;2901;42.140;24.760;2023-11-21T09:27:09;10.57;;;6.93;;
5752;SDS011;2901;42.140;24.760;2023-11-21T09:29:35;7.90;;;5.90;;
5752;SDS011;2901;42.140;24.760;2023-11-21T09:32:03;9.25;;;6.00;;
5752;SDS011;2901;42.140;24.760;2023-11-21T09:34:31;13.00;;;5.63;;
5752;SDS011;2901;42.140;24.760;2023-11-21T09:36:58;13.20;;;7.03;;
5752;SDS011;2901;42.140;24.760;2023-11-21T09:39:23;9.43;;;5.30;;
5752;SDS011;2901;42.140;24.760;2023-11-21T09:41:52;8.15;;;5.53;;
5752;SDS011;2901;42.140;24.760;2023-11-21T09:47:21;10.32;;;5.35;;
5752;SDS011;2901;42.140;24.760;2023-11-21T09:49:48;11.80;;;7.00;;
5752;SDS011;2901;42.140;24.760;2023-11-21T09:52:27;12.40;;;7.65;;
5752;SDS011;2901;42.140;24.760;2023-11-21T09:54:53;6.47;;;4.80;;
5752;SDS011;2901;42.140;24.760;2023-11-21T09:57:22;6.07;;;5.55;;
5752;SDS011;2901;42.140;24.760;2023-11-21T09:59:52;6.53;;;5.82;;
5752;SDS011;2901;42.140;24.760;2023-11-21T10:02:24;11.55;;;5.20;;
5752;SDS011;2901;42.140;24.760;2023-11-21T10:04:51;16.17;;;5.13;;
5752;SDS011;2901;42.140;24.760;2023-11-21T10:07:17;7.00;;;5.38;;
5752;SDS011;2901;42.140;24.760;2023-11-21T10:09:45;7.32;;;5.22;;
5752;SDS011;2901;42.140;24.760;2023-11-21T10:12:11;5.80;;;5.32;;
5752;SDS011;2901;42.140;24.760;2023-11-21T10:14:40;6.65;;;4.97;;
5752;SDS011;2901;42.140;24.760;2023-11-21T10:17:07;9.07;;;6.03;;
5752;SDS011;2901;42.140;24.760;2023-11-21T10:19:33;8.85;;;5.53;;
5752;SDS011;2901;42.140;24.760;2023-11-21T10:22:01;5.75;;;5.30;;
5752;SDS011;2901;42.140;24.760;2023-11-21T10:24:28;9.35;;;6.45;;
5752;SDS011;2901;42.140;24.760;2023-11-21T10:26:54;17.02;;;6.28;;
5752;SDS011;2901;42.140;24.760;2023-11-21T10:29:19;6.80;;;6.20;;
5752;SDS011;2901;42.140;24.760;2023-11-21T10:31:48;7.95;;;5.60;;
5752;SDS011;2901;42.140;24.760;2023-11-21T10:34:20;7.25;;;6.60;;
5752;SDS011;2901;42.140;24.760;2023-11-21T10:36:46;13.07;;;7.07;;
5752;SDS011;2901;42.140;24.760;2023-11-21T10:39:18;12.52;;;7.70;;
5752;SDS011;2901;42.140;24.760;2023-11-21T10:41:45;23.35;;;13.95;;
5752;SDS011;2901;42.140;24.760;2023-11-21T10:44:13;7.78;;;7.05;;
5752;SDS011;2901;42.140;24.760;2023-11-21T10:46:45;7.68;;;7.15;;
5752;SDS011;2901;42.140;24.760;2023-11-21T10:49:15;7.43;;;6.43;;
5752;SDS011;2901;42.140;24.760;2023-11-21T10:51:43;13.27;;;7.22;;
5752;SDS011;2901;42.140;24.760;2023-11-21T10:54:09;7.88;;;6.57;;
5752;SDS011;2901;42.140;24.760;2023-11-21T10:56:34;8.95;;;6.32;;
5752;SDS011;2901;42.140;24.760;2023-11-21T10:59:05;7.10;;;5.80;;
5752;SDS011;2901;42.140;24.760;2023-11-21T11:01:35;6.93;;;5.18;;
5752;SDS011;2901;42.140;24.760;2023-11-21T11:04:02;6.68;;;5.28;;
5752;SDS011;2901;42.140;24.760;2023-11-21T11:06:31;15.32;;;5.15;;
5752;SDS011;2901;42.140;24.760;2023-11-21T11:08:58;5.50;;;5.00;;
5752;SDS011;2901;42.140;24.760;2023-11-21T11:11:27;17.00;;;6.50;;
5752;SDS011;2901;42.140;24.760;2023-11-21T11:13:55;8.95;;;6.28;;
5752;SDS011;2901;42.140;24.760;2023-11-21T11:16:21;6.53;;;5.97;;
5752;SDS011;2901;42.140;24.760;2023-11-21T11:18:47;6.32;;;5.78;;
5752;SDS011;2901;42.140;24.760;2023-11-21T11:29:23;10.50;;;5.95;;
5752;SDS011;2901;42.140;24.760;2023-11-21T11:35:04;6.75;;;5.65;;
5752;SDS011;2901;42.140;24.760;2023-11-21T11:37:36;6.03;;;5.47;;
5752;SDS011;2901;42.140;24.760;2023-11-21T11:40:05;9.95;;;5.53;;
5752;SDS011;2901;42.140;24.760;2023-11-21T11:42:32;6.82;;;6.25;;
5752;SDS011;2901;42.140;24.760;2023-11-21T11:44:57;17.85;;;11.23;;
5752;SDS011;2901;42.140;24.760;2023-11-21T11:47:24;11.25;;;7.28;;
5752;SDS011;2901;42.140;24.760;2023-11-21T11:50:01;10.27;;;4.90;;
5752;SDS011;2901;42.140;24.760;2023-11-21T11:53:11;10.10;;;5.68;;
5752;SDS011;2901;42.140;24.760;2023-11-21T11:55:38;4.57;;;3.72;;
5752;SDS011;2901;42.140;24.760;2023-11-21T11:58:05;7.30;;;3.92;;
5752;SDS011;2901;42.140;24.760;2023-11-21T12:02:59;4.22;;;3.92;;
5752;SDS011;2901;42.140;24.760;2023-11-21T12:05:28;4.97;;;4.25;;
5752;SDS011;2901;42.140;24.760;2023-11-21T12:07:58;9.20;;;4.50;;
5752;SDS011;2901;42.140;24.760;2023-11-21T12:10:29;5.90;;;4.80;;
5752;SDS011;2901;42.140;24.760;2023-11-21T12:12:59;4.35;;;4.05;;
5752;SDS011;2901;42.140;24.760;2023-11-21T12:15:26;5.47;;;5.07;;
5752;SDS011;2901;42.140;24.760;2023-11-21T12:17:54;6.00;;;5.60;;
5752;SDS011;2901;42.140;24.760;2023-11-21T12:20:20;6.47;;;5.82;;
5752;SDS011;2901;42.140;24.760;2023-11-21T12:22:48;9.75;;;5.10;;
5752;SDS011;2901;42.140;24.760;2023-11-21T12:25:17;6.57;;;5.53;;
5752;SDS011;2901;42.140;24.760;2023-11-21T12:27:47;6.65;;;6.20;;
5752;SDS011;2901;42.140;24.760;2023-11-21T12:30:20;7.28;;;5.88;;
5752;SDS011;2901;42.140;24.760;2023-11-21T12:32:51;9.07;;;7.18;;
5752;SDS011;2901;42.140;24.760;2023-11-21T12:35:18;6.88;;;6.47;;
5752;SDS011;2901;42.140;24.760;2023-11-21T12:37:45;9.43;;;5.90;;
5752;SDS011;2901;42.140;24.760;2023-11-21T12:40:11;10.50;;;6.40;;
5752;SDS011;2901;42.140;24.760;2023-11-21T12:42:40;6.43;;;5.28;;
5752;SDS011;2901;42.140;24.760;2023-11-21T12:47:49;6.43;;;5.18;;
5752;SDS011;2901;42.140;24.760;2023-11-21T12:50:23;5.13;;;4.65;;
5752;SDS011;2901;42.140;24.760;2023-11-21T12:52:53;6.43;;;4.57;;
5752;SDS011;2901;42.140;24.760;2023-11-21T12:55:22;5.60;;;4.50;;
5752;SDS011;2901;42.140;24.760;2023-11-21T12:57:52;8.20;;;3.92;;
5752;SDS011;2901;42.140;24.760;2023-11-21T13:00:29;4.10;;;3.70;;
5752;SDS011;2901;42.140;24.760;2023-11-21T13:02:58;3.95;;;3.70;;
5752;SDS011;2901;42.140;24.760;2023-11-21T13:05:30;7.57;;;4.95;;
5752;SDS011;2901;42.140;24.760;2023-11-21T13:07:59;8.68;;;3.92;;
5752;SDS011;2901;42.140;24.760;2023-11-21T13:10:28;7.25;;;4.40;;
5752;SDS011;2901;42.140;24.760;2023-11-21T13:12:58;3.90;;;3.60;;
5752;SDS011;2901;42.140;24.760;2023-11-21T13:15:25;4.03;;;3.72;;
5752;SDS011;2901;42.140;24.760;2023-11-21T13:17:52;7.72;;;3.40;;
5752;SDS011;2901;42.140;24.760;2023-11-21T13:20:19;7.55;;;4.43;;
5752;SDS011;2901;42.140;24.760;2023-11-21T13:22:46;3.90;;;3.70;;
5752;SDS011;2901;42.140;24.760;2023-11-21T13:25:14;7.22;;;3.70;;
5752;SDS011;2901;42.140;24.760;2023-11-21T13:27:42;6.18;;;4.38;;
5752;SDS011;2901;42.140;24.760;2023-11-21T13:30:09;5.32;;;4.05;;
5752;SDS011;2901;42.140;24.760;2023-11-21T13:32:35;4.70;;;4.40;;
5752;SDS011;2901;42.140;24.760;2023-11-21T13:35:00;4.72;;;4.32;;
5752;SDS011;2901;42.140;24.760;2023-11-21T13:37:26;4.32;;;3.92;;
5752;SDS011;2901;42.140;24.760;2023-11-21T13:39:53;5.57;;;4.07;;
5752;SDS011;2901;42.140;24.760;2023-11-21T13:42:19;5.82;;;4.57;;
5752;SDS011;2901;42.140;24.760;2023-11-21T13:44:48;5.25;;;4.93;;
5752;SDS011;2901;42.140;24.760;2023-11-21T13:47:16;12.00;;;5.65;;
5752;SDS011;2901;42.140;24.760;2023-11-21T13:49:42;5.70;;;5.20;;
5752;SDS011;2901;42.140;24.760;2023-11-21T13:52:07;6.57;;;5.03;;
5752;SDS011;2901;42.140;24.760;2023-11-21T13:54:33;5.30;;;5.00;;
5752;SDS011;2901;42.140;24.760;2023-11-21T13:56:58;5.30;;;4.90;;
5752;SDS011;2901;42.140;24.760;2023-11-21T13:59:25;7.70;;;5.47;;
5752;SDS011;2901;42.140;24.760;2023-11-21T14:01:53;9.35;;;5.88;;
5752;SDS011;2901;42.140;24.760;2023-11-21T14:04:37;6.72;;;5.93;;
5752;SDS011;2901;42.140;24.760;2023-11-21T14:07:14;18.02;;;6.97;;
5752;SDS011;2901;42.140;24.760;2023-11-21T14:09:51;18.73;;;7.63;;
5752;SDS011;2901;42.140;24.760;2023-11-21T14:12:17;6.40;;;5.90;;
5752;SDS011;2901;42.140;24.760;2023-11-21T14:14:43;6.85;;;6.07;;
5752;SDS011;2901;42.140;24.760;2023-11-21T14:17:12;7.00;;;6.30;;
5752;SDS011;2901;42.140;24.760;2023-11-21T14:19:38;7.00;;;5.82;;
5752;SDS011;2901;42.140;24.760;2023-11-21T14:22:07;6.25;;;5.63;;
5752;SDS011;2901;42.140;24.760;2023-11-21T14:24:34;6.60;;;5.55;;
5752;SDS011;2901;42.140;24.760;2023-11-21T14:27:00;8.77;;;6.82;;
5752;SDS011;2901;42.140;24.760;2023-11-21T14:29:25;6.75;;;6.07;;
5752;SDS011;2901;42.140;24.760;2023-11-21T14:31:52;6.13;;;5.65;;
5752;SDS011;2901;42.140;24.760;2023-11-21T14:34:21;12.23;;;6.30;;
5752;SDS011;2901;42.140;24.760;2023-11-21T14:36:47;7.32;;;6.70;;
5752;SDS011;2901;42.140;24.760;2023-11-21T14:39:14;10.25;;;6.65;;
5752;SDS011;2901;42.140;24.760;2023-11-21T14:41:51;10.80;;;5.93;;
5752;SDS011;2901;42.140;24.760;2023-11-21T14:44:18;10.68;;;7.90;;
5752;SDS011;2901;42.140;24.760;2023-11-21T14:46:45;18.45;;;7.47;;
5752;SDS011;2901;42.140;24.760;2023-11-21T14:49:14;11.90;;;7.60;;
5752;SDS011;2901;42.140;24.760;2023-11-21T14:51:46;9.75;;;8.57;;
5752;SDS011;2901;42.140;24.760;2023-11-21T14:54:25;17.17;;;9.35;;
5752;SDS011;2901;42.140;24.760;2023-11-21T14:57:05;10.88;;;8.95;;
5752;SDS011;2901;42.140;24.760;2023-11-21T14:59:45;13.13;;;9.77;;
5752;SDS011;2901;42.140;24.760;2023-11-21T15:02:20;15.30;;;9.45;;
5752;SDS011;2901;42.140;24.760;2023-11-21T15:05:08;12.25;;;9.50;;
5752;SDS011;2901;42.140;24.760;2023-11-21T15:07:39;18.00;;;10.23;;
5752;SDS011;2901;42.140;24.760;2023-11-21T15:10:05;18.92;;;9.32;;
5752;SDS011;2901;42.140;24.760;2023-11-21T15:12:36;12.45;;;9.48;;
5752;SDS011;2901;42.140;24.760;2023-11-21T15:15:04;14.48;;;8.85;;